Briefing drone pour Trebes

Rechercher une autre localisation

Conditions de vol :


Nous sommes le : Vendredi 17 septembre 2021
Il est 18:39 UTC (20:39 LT)

Lever de soleil : 05:05 UTC (07:05 LT)
Coucher de soleil : 18:23 UTC (20:23 LT)

Météo

L'essentiel des conditions de vol

VIGILANCE MÉTÉO FRANCE - Aude (11)
Pas de vigilances particulieres
METAR de LFMK
LFMK 171830Z AUTO 30001KT CAVOK 19/15 Q1013

Date d'émission: 17/09/2021
Heure d'émission: 18:30 UTC
Vent: 300° pour 1 KT (2 km/h)
Visibilité horizontale: > 10 km
Plafond : Plafond et visibilité OK (CAVOK)
Température: 19 °C
Point de rosée: 15 °C
Humidité: 78%
Pression (QNH): 1013 hPa
TAF de LFMK
LFMK 171802Z 1718/1815 CNL

Conditions prévues :

Heure d'émission : Bulletin éffectué le 17 à 18:00 UTC
Prévision : Valide du 17 a 18:00 UTC au 18 a 15:00 UTC
Nuages : à 0ft (0 m)
WEBCAM POUR TREBES

Réglementation

Voler en sécurité

CARTES AERONAUTIQUE 1/500.000
CARTES VAC (LFMK)
SUP AIP




Chargement des AIP...
NOTAM (TREBES + Terrain à proximité / FIR )




Chargement des NOTAMS...
CONTACT PREFECTURE 11


Avertissement : Les données mises à disposition sont indicatives. Oxygène Drone ne pourra être tenu responsable de dégâts causés aux biens et aux personnes.